sensor_id;sensor_type;location;lat;lon;timestamp;temperature;humidity
69393;SHT31;56582;44.624;20.378;2023-07-22T00:00:44;19.86;94.73
69393;SHT31;56582;44.624;20.378;2023-07-22T00:03:09;19.94;94.46
69393;SHT31;56582;44.624;20.378;2023-07-22T00:05:35;19.93;94.86
69393;SHT31;56582;44.624;20.378;2023-07-22T00:08:00;19.73;95.12
69393;SHT31;56582;44.624;20.378;2023-07-22T00:10:26;19.72;95.44
69393;SHT31;56582;44.624;20.378;2023-07-22T00:12:51;19.86;95.33
69393;SHT31;56582;44.624;20.378;2023-07-22T00:15:17;19.76;95.71
69393;SHT31;56582;44.624;20.378;2023-07-22T00:17:42;19.79;95.66
69393;SHT31;56582;44.624;20.378;2023-07-22T00:20:09;19.79;95.82
69393;SHT31;56582;44.624;20.378;2023-07-22T00:22:39;19.69;95.89
69393;SHT31;56582;44.624;20.378;2023-07-22T00:25:14;19.70;96.03
69393;SHT31;56582;44.624;20.378;2023-07-22T00:27:41;19.76;95.57
69393;SHT31;56582;44.624;20.378;2023-07-22T00:30:07;19.90;95.10
69393;SHT31;56582;44.624;20.378;2023-07-22T00:32:33;20.06;94.55
69393;SHT31;56582;44.624;20.378;2023-07-22T00:34:59;20.09;94.50
69393;SHT31;56582;44.624;20.378;2023-07-22T00:37:24;20.11;94.39
69393;SHT31;56582;44.624;20.378;2023-07-22T00:39:50;20.17;94.07
69393;SHT31;56582;44.624;20.378;2023-07-22T00:42:16;20.13;94.45
69393;SHT31;56582;44.624;20.378;2023-07-22T00:44:41;20.00;94.53
69393;SHT31;56582;44.624;20.378;2023-07-22T00:47:07;20.10;94.02
69393;SHT31;56582;44.624;20.378;2023-07-22T00:49:34;20.06;94.54
69393;SHT31;56582;44.624;20.378;2023-07-22T00:52:01;19.97;94.71
69393;SHT31;56582;44.624;20.378;2023-07-22T00:54:28;19.94;95.21
69393;SHT31;56582;44.624;20.378;2023-07-22T00:56:54;19.96;95.40
69393;SHT31;56582;44.624;20.378;2023-07-22T00:59:19;19.98;95.73
69393;SHT31;56582;44.624;20.378;2023-07-22T01:01:46;20.06;95.45
69393;SHT31;56582;44.624;20.378;2023-07-22T01:04:15;20.07;95.37
69393;SHT31;56582;44.624;20.378;2023-07-22T01:06:43;20.03;95.22
69393;SHT31;56582;44.624;20.378;2023-07-22T01:09:09;19.94;95.61
69393;SHT31;56582;44.624;20.378;2023-07-22T01:11:34;19.97;95.20
69393;SHT31;56582;44.624;20.378;2023-07-22T01:14:00;19.94;95.19
69393;SHT31;56582;44.624;20.378;2023-07-22T01:16:27;20.00;95.24
69393;SHT31;56582;44.624;20.378;2023-07-22T01:18:53;20.03;94.89
69393;SHT31;56582;44.624;20.378;2023-07-22T01:21:23;19.90;95.14
69393;SHT31;56582;44.624;20.378;2023-07-22T01:23:50;20.01;95.09
69393;SHT31;56582;44.624;20.378;2023-07-22T01:26:16;20.13;94.55
69393;SHT31;56582;44.624;20.378;2023-07-22T01:28:41;20.01;94.93
69393;SHT31;56582;44.624;20.378;2023-07-22T01:31:07;20.11;94.62
69393;SHT31;56582;44.624;20.378;2023-07-22T01:33:32;20.18;94.23
69393;SHT31;56582;44.624;20.378;2023-07-22T01:35:59;20.23;94.13
69393;SHT31;56582;44.624;20.378;2023-07-22T01:38:25;20.04;94.99
69393;SHT31;56582;44.624;20.378;2023-07-22T07:20:40;23.38;86.54
69393;SHT31;56582;44.624;20.378;2023-07-22T07:23:05;23.15;87.23
69393;SHT31;56582;44.624;20.378;2023-07-22T07:25:31;22.81;86.60
69393;SHT31;56582;44.624;20.378;2023-07-22T07:27:56;23.24;88.57
69393;SHT31;56582;44.624;20.378;2023-07-22T07:30:22;23.62;87.00
69393;SHT31;56582;44.624;20.378;2023-07-22T07:32:47;23.72;84.83
69393;SHT31;56582;44.624;20.378;2023-07-22T07:35:12;23.66;86.27
69393;SHT31;56582;44.624;20.378;2023-07-22T07:37:38;23.92;85.65
69393;SHT31;56582;44.624;20.378;2023-07-22T07:40:04;23.84;85.61
69393;SHT31;56582;44.624;20.378;2023-07-22T07:42:29;23.62;85.44
69393;SHT31;56582;44.624;20.378;2023-07-22T07:44:55;23.65;83.90
69393;SHT31;56582;44.624;20.378;2023-07-22T07:47:20;23.58;84.01
69393;SHT31;56582;44.624;20.378;2023-07-22T07:49:46;23.76;84.06
69393;SHT31;56582;44.624;20.378;2023-07-22T07:52:15;23.77;84.43
69393;SHT31;56582;44.624;20.378;2023-07-22T07:54:41;24.00;82.96
69393;SHT31;56582;44.624;20.378;2023-07-22T07:57:06;24.11;84.22
69393;SHT31;56582;44.624;20.378;2023-07-22T07:59:32;23.97;83.89
69393;SHT31;56582;44.624;20.378;2023-07-22T08:01:57;23.70;85.56
69393;SHT31;56582;44.624;20.378;2023-07-22T08:04:22;23.73;83.59
69393;SHT31;56582;44.624;20.378;2023-07-22T08:06:48;23.84;84.40
69393;SHT31;56582;44.624;20.378;2023-07-22T08:09:14;23.59;85.04
69393;SHT31;56582;44.624;20.378;2023-07-22T08:11:46;23.66;84.86
69393;SHT31;56582;44.624;20.378;2023-07-22T08:14:14;23.74;85.54
69393;SHT31;56582;44.624;20.378;2023-07-22T08:16:40;23.72;84.61
69393;SHT31;56582;44.624;20.378;2023-07-22T08:19:05;23.89;84.70
69393;SHT31;56582;44.624;20.378;2023-07-22T08:21:30;23.94;84.09
69393;SHT31;56582;44.624;20.378;2023-07-22T08:23:56;24.20;83.51
69393;SHT31;56582;44.624;20.378;2023-07-22T08:26:22;24.28;82.80
69393;SHT31;56582;44.624;20.378;2023-07-22T08:28:47;24.47;84.37
69393;SHT31;56582;44.624;20.378;2023-07-22T08:31:13;24.55;83.44
69393;SHT31;56582;44.624;20.378;2023-07-22T08:33:38;24.67;80.76
69393;SHT31;56582;44.624;20.378;2023-07-22T08:36:04;24.83;79.17
69393;SHT31;56582;44.624;20.378;2023-07-22T08:38:30;24.89;80.03
69393;SHT31;56582;44.624;20.378;2023-07-22T08:40:56;24.82;79.60
69393;SHT31;56582;44.624;20.378;2023-07-22T08:43:22;25.13;79.20
69393;SHT31;56582;44.624;20.378;2023-07-22T08:45:49;25.34;81.30
69393;SHT31;56582;44.624;20.378;2023-07-22T08:48:17;25.46;79.46
69393;SHT31;56582;44.624;20.378;2023-07-22T08:50:49;25.61;78.72
69393;SHT31;56582;44.624;20.378;2023-07-22T08:53:15;25.54;79.44
69393;SHT31;56582;44.624;20.378;2023-07-22T08:55:41;25.82;79.29
69393;SHT31;56582;44.624;20.378;2023-07-22T08:58:09;25.73;76.54
69393;SHT31;56582;44.624;20.378;2023-07-22T09:00:36;25.94;77.42
69393;SHT31;56582;44.624;20.378;2023-07-22T09:03:02;25.51;76.18
69393;SHT31;56582;44.624;20.378;2023-07-22T09:05:28;25.23;77.03
69393;SHT31;56582;44.624;20.378;2023-07-22T09:07:56;25.24;77.54
69393;SHT31;56582;44.624;20.378;2023-07-22T09:10:22;25.22;78.34
69393;SHT31;56582;44.624;20.378;2023-07-22T09:12:50;25.63;78.38
69393;SHT31;56582;44.624;20.378;2023-07-22T09:15:16;25.68;76.84
69393;SHT31;56582;44.624;20.378;2023-07-22T09:17:42;25.81;75.63
69393;SHT31;56582;44.624;20.378;2023-07-22T09:20:08;26.05;75.72
69393;SHT31;56582;44.624;20.378;2023-07-22T09:22:34;26.28;76.12
69393;SHT31;56582;44.624;20.378;2023-07-22T09:25:17;26.19;75.16
69393;SHT31;56582;44.624;20.378;2023-07-22T09:27:43;25.88;75.66
69393;SHT31;56582;44.624;20.378;2023-07-22T09:30:29;25.71;77.20
69393;SHT31;56582;44.624;20.378;2023-07-22T09:32:58;26.15;78.98
69393;SHT31;56582;44.624;20.378;2023-07-22T09:35:29;26.46;78.07
69393;SHT31;56582;44.624;20.378;2023-07-22T09:37:55;26.26;77.17
69393;SHT31;56582;44.624;20.378;2023-07-22T09:40:26;26.60;76.87
69393;SHT31;56582;44.624;20.378;2023-07-22T09:42:53;26.28;75.25
69393;SHT31;56582;44.624;20.378;2023-07-22T09:45:21;26.42;75.71
69393;SHT31;56582;44.624;20.378;2023-07-22T09:47:48;26.32;74.73
69393;SHT31;56582;44.624;20.378;2023-07-22T09:52:45;26.02;75.24
69393;SHT31;56582;44.624;20.378;2023-07-22T09:55:12;26.04;76.03
69393;SHT31;56582;44.624;20.378;2023-07-22T09:57:43;26.40;74.13
69393;SHT31;56582;44.624;20.378;2023-07-22T10:00:11;26.35;73.46
69393;SHT31;56582;44.624;20.378;2023-07-22T10:02:40;26.50;74.76
69393;SHT31;56582;44.624;20.378;2023-07-22T10:05:06;26.74;76.42
69393;SHT31;56582;44.624;20.378;2023-07-22T10:07:33;26.67;73.48
69393;SHT31;56582;44.624;20.378;2023-07-22T10:10:00;26.50;74.56
69393;SHT31;56582;44.624;20.378;2023-07-22T10:12:27;26.26;75.61
69393;SHT31;56582;44.624;20.378;2023-07-22T10:14:53;26.28;74.22
69393;SHT31;56582;44.624;20.378;2023-07-22T10:17:19;26.44;74.76
69393;SHT31;56582;44.624;20.378;2023-07-22T10:19:44;26.84;73.72
69393;SHT31;56582;44.624;20.378;2023-07-22T10:22:11;26.97;72.45
69393;SHT31;56582;44.624;20.378;2023-07-22T10:24:39;26.64;73.99
69393;SHT31;56582;44.624;20.378;2023-07-22T10:27:07;26.42;73.71
69393;SHT31;56582;44.624;20.378;2023-07-22T10:29:33;26.46;73.77
69393;SHT31;56582;44.624;20.378;2023-07-22T10:31:59;26.56;73.81
69393;SHT31;56582;44.624;20.378;2023-07-22T10:34:24;26.59;72.10
69393;SHT31;56582;44.624;20.378;2023-07-22T10:36:50;26.46;72.55
69393;SHT31;56582;44.624;20.378;2023-07-22T10:39:26;27.07;72.27
69393;SHT31;56582;44.624;20.378;2023-07-22T10:42:02;27.59;73.96
69393;SHT31;56582;44.624;20.378;2023-07-22T10:44:37;27.60;70.15
69393;SHT31;56582;44.624;20.378;2023-07-22T10:47:03;27.63;70.40
69393;SHT31;56582;44.624;20.378;2023-07-22T10:49:47;27.59;71.94
69393;SHT31;56582;44.624;20.378;2023-07-22T10:52:13;27.41;70.64
69393;SHT31;56582;44.624;20.378;2023-07-22T10:54:40;27.07;68.67
69393;SHT31;56582;44.624;20.378;2023-07-22T10:59:48;27.00;71.00
69393;SHT31;56582;44.624;20.378;2023-07-22T11:02:25;27.28;69.28
69393;SHT31;56582;44.624;20.378;2023-07-22T11:04:50;27.49;70.93
69393;SHT31;56582;44.624;20.378;2023-07-22T11:07:30;27.74;68.30
69393;SHT31;56582;44.624;20.378;2023-07-22T11:09:55;27.59;69.37
69393;SHT31;56582;44.624;20.378;2023-07-22T11:12:24;27.12;69.24
69393;SHT31;56582;44.624;20.378;2023-07-22T11:15:02;27.11;71.96
69393;SHT31;56582;44.624;20.378;2023-07-22T11:17:29;27.29;70.06
69393;SHT31;56582;44.624;20.378;2023-07-22T11:19:56;27.39;70.56
69393;SHT31;56582;44.624;20.378;2023-07-22T11:22:21;27.52;71.70
69393;SHT31;56582;44.624;20.378;2023-07-22T11:24:48;27.18;68.06
69393;SHT31;56582;44.624;20.378;2023-07-22T11:27:13;27.24;69.89
69393;SHT31;56582;44.624;20.378;2023-07-22T11:29:40;27.37;67.47
69393;SHT31;56582;44.624;20.378;2023-07-22T11:32:06;27.56;68.88
69393;SHT31;56582;44.624;20.378;2023-07-22T11:34:32;27.42;66.99
69393;SHT31;56582;44.624;20.378;2023-07-22T11:36:57;28.00;71.79
69393;SHT31;56582;44.624;20.378;2023-07-22T11:39:25;27.93;69.90
69393;SHT31;56582;44.624;20.378;2023-07-22T11:41:52;27.93;68.34
69393;SHT31;56582;44.624;20.378;2023-07-22T11:44:22;27.14;68.68
69393;SHT31;56582;44.624;20.378;2023-07-22T11:49:32;27.29;69.51
69393;SHT31;56582;44.624;20.378;2023-07-22T11:54:28;27.45;69.91
69393;SHT31;56582;44.624;20.378;2023-07-22T11:56:55;27.18;70.07
69393;SHT31;56582;44.624;20.378;2023-07-22T11:59:38;27.32;67.03
69393;SHT31;56582;44.624;20.378;2023-07-22T12:02:04;27.66;69.10
69393;SHT31;56582;44.624;20.378;2023-07-22T12:04:31;28.07;69.77
69393;SHT31;56582;44.624;20.378;2023-07-22T12:06:57;28.36;69.08
69393;SHT31;56582;44.624;20.378;2023-07-22T12:09:23;28.13;66.35
69393;SHT31;56582;44.624;20.378;2023-07-22T12:11:55;27.83;68.70
69393;SHT31;56582;44.624;20.378;2023-07-22T12:14:21;27.55;70.78
69393;SHT31;56582;44.624;20.378;2023-07-22T12:16:47;27.28;68.29
69393;SHT31;56582;44.624;20.378;2023-07-22T12:19:12;27.24;69.70
69393;SHT31;56582;44.624;20.378;2023-07-22T12:21:38;27.65;68.83
69393;SHT31;56582;44.624;20.378;2023-07-22T12:24:03;27.94;66.64
69393;SHT31;56582;44.624;20.378;2023-07-22T12:26:32;27.38;67.94
69393;SHT31;56582;44.624;20.378;2023-07-22T12:28:57;27.49;68.52
69393;SHT31;56582;44.624;20.378;2023-07-22T12:31:23;27.78;68.64
69393;SHT31;56582;44.624;20.378;2023-07-22T12:33:48;28.21;69.05
69393;SHT31;56582;44.624;20.378;2023-07-22T12:36:13;27.97;67.98
69393;SHT31;56582;44.624;20.378;2023-07-22T12:38:39;27.82;67.43
69393;SHT31;56582;44.624;20.378;2023-07-22T12:41:04;27.66;67.71
69393;SHT31;56582;44.624;20.378;2023-07-22T12:43:30;28.18;67.55
69393;SHT31;56582;44.624;20.378;2023-07-22T12:45:55;28.21;66.51
69393;SHT31;56582;44.624;20.378;2023-07-22T12:48:21;28.33;67.66
69393;SHT31;56582;44.624;20.378;2023-07-22T12:50:47;28.31;67.13
69393;SHT31;56582;44.624;20.378;2023-07-22T12:53:13;28.49;68.89
69393;SHT31;56582;44.624;20.378;2023-07-22T12:55:39;28.75;68.05
69393;SHT31;56582;44.624;20.378;2023-07-22T12:58:05;29.05;69.56
69393;SHT31;56582;44.624;20.378;2023-07-22T13:00:30;29.00;68.12
69393;SHT31;56582;44.624;20.378;2023-07-22T13:02:56;28.76;66.31
69393;SHT31;56582;44.624;20.378;2023-07-22T13:05:22;28.94;64.81
69393;SHT31;56582;44.624;20.378;2023-07-22T13:07:48;29.00;68.19
69393;SHT31;56582;44.624;20.378;2023-07-22T13:10:19;28.18;66.45
69393;SHT31;56582;44.624;20.378;2023-07-22T13:12:51;28.44;67.63
69393;SHT31;56582;44.624;20.378;2023-07-22T13:15:17;28.18;66.18
69393;SHT31;56582;44.624;20.378;2023-07-22T13:17:42;27.96;67.25
69393;SHT31;56582;44.624;20.378;2023-07-22T13:20:08;27.86;67.71
69393;SHT31;56582;44.624;20.378;2023-07-22T13:22:38;28.27;66.77
69393;SHT31;56582;44.624;20.378;2023-07-22T13:25:04;28.27;66.58
69393;SHT31;56582;44.624;20.378;2023-07-22T13:27:29;28.01;64.69
69393;SHT31;56582;44.624;20.378;2023-07-22T13:29:55;28.41;65.54
69393;SHT31;56582;44.624;20.378;2023-07-22T13:32:20;28.83;66.27
69393;SHT31;56582;44.624;20.378;2023-07-22T13:34:46;28.52;65.86
69393;SHT31;56582;44.624;20.378;2023-07-22T13:37:11;28.49;66.85
69393;SHT31;56582;44.624;20.378;2023-07-22T13:39:37;28.66;63.08
69393;SHT31;56582;44.624;20.378;2023-07-22T13:42:02;28.85;68.47
69393;SHT31;56582;44.624;20.378;2023-07-22T13:44:28;28.82;65.40
69393;SHT31;56582;44.624;20.378;2023-07-22T13:46:53;29.10;64.66
69393;SHT31;56582;44.624;20.378;2023-07-22T13:49:19;28.94;65.95
69393;SHT31;56582;44.624;20.378;2023-07-22T13:51:44;28.76;65.85
69393;SHT31;56582;44.624;20.378;2023-07-22T13:54:09;28.86;67.00
69393;SHT31;56582;44.624;20.378;2023-07-22T13:56:35;28.41;66.88
69393;SHT31;56582;44.624;20.378;2023-07-22T13:59:01;28.37;65.91
69393;SHT31;56582;44.624;20.378;2023-07-22T14:01:28;28.22;68.22
69393;SHT31;56582;44.624;20.378;2023-07-22T14:03:54;28.28;64.89
69393;SHT31;56582;44.624;20.378;2023-07-22T14:06:19;28.51;68.57
69393;SHT31;56582;44.624;20.378;2023-07-22T14:08:45;28.58;67.32
69393;SHT31;56582;44.624;20.378;2023-07-22T14:11:10;28.79;69.30
69393;SHT31;56582;44.624;20.378;2023-07-22T14:13:36;28.95;68.50
69393;SHT31;56582;44.624;20.378;2023-07-22T14:16:03;29.09;64.37
69393;SHT31;56582;44.624;20.378;2023-07-22T14:18:29;29.12;63.42
69393;SHT31;56582;44.624;20.378;2023-07-22T14:20:54;29.09;63.11
69393;SHT31;56582;44.624;20.378;2023-07-22T14:23:20;29.22;63.04
69393;SHT31;56582;44.624;20.378;2023-07-22T14:25:45;28.96;64.37
69393;SHT31;56582;44.624;20.378;2023-07-22T14:28:11;29.23;66.50
69393;SHT31;56582;44.624;20.378;2023-07-22T14:30:36;29.44;66.20
69393;SHT31;56582;44.624;20.378;2023-07-22T14:33:02;29.53;66.69
69393;SHT31;56582;44.624;20.378;2023-07-22T14:35:27;29.44;63.80
69393;SHT31;56582;44.624;20.378;2023-07-22T14:37:53;29.02;64.45
69393;SHT31;56582;44.624;20.378;2023-07-22T14:40:18;29.16;65.78
69393;SHT31;56582;44.624;20.378;2023-07-22T14:42:44;29.33;65.72
69393;SHT31;56582;44.624;20.378;2023-07-22T14:45:09;29.34;67.74
69393;SHT31;56582;44.624;20.378;2023-07-22T14:47:35;29.17;63.86
69393;SHT31;56582;44.624;20.378;2023-07-22T14:50:01;29.40;64.53
69393;SHT31;56582;44.624;20.378;2023-07-22T14:52:26;29.19;64.48
69393;SHT31;56582;44.624;20.378;2023-07-22T14:54:54;29.26;64.86
69393;SHT31;56582;44.624;20.378;2023-07-22T14:57:20;29.13;63.92
69393;SHT31;56582;44.624;20.378;2023-07-22T14:59:45;28.88;65.88
69393;SHT31;56582;44.624;20.378;2023-07-22T15:02:12;29.13;69.43
69393;SHT31;56582;44.624;20.378;2023-07-22T15:04:37;29.09;65.45
69393;SHT31;56582;44.624;20.378;2023-07-22T15:07:03;29.20;65.81
69393;SHT31;56582;44.624;20.378;2023-07-22T15:45:52;27.97;67.03
69393;SHT31;56582;44.624;20.378;2023-07-22T15:48:17;28.11;69.40
69393;SHT31;56582;44.624;20.378;2023-07-22T15:50:42;27.99;69.63
69393;SHT31;56582;44.624;20.378;2023-07-22T15:53:08;27.55;67.19
69393;SHT31;56582;44.624;20.378;2023-07-22T15:55:33;27.74;67.70
69393;SHT31;56582;44.624;20.378;2023-07-22T15:57:59;27.56;66.71
69393;SHT31;56582;44.624;20.378;2023-07-22T16:00:24;27.80;66.97
69393;SHT31;56582;44.624;20.378;2023-07-22T16:02:50;27.92;65.00
69393;SHT31;56582;44.624;20.378;2023-07-22T16:05:18;28.10;65.06
69393;SHT31;56582;44.624;20.378;2023-07-22T16:07:44;27.94;66.42
69393;SHT31;56582;44.624;20.378;2023-07-22T16:10:10;27.78;67.01
69393;SHT31;56582;44.624;20.378;2023-07-22T16:12:35;27.93;66.51
69393;SHT31;56582;44.624;20.378;2023-07-22T16:15:01;27.89;68.38
69393;SHT31;56582;44.624;20.378;2023-07-22T16:17:26;27.76;68.24
69393;SHT31;56582;44.624;20.378;2023-07-22T16:19:51;27.80;70.88
69393;SHT31;56582;44.624;20.378;2023-07-22T16:22:17;27.82;69.58
69393;SHT31;56582;44.624;20.378;2023-07-22T16:24:42;27.63;69.03
69393;SHT31;56582;44.624;20.378;2023-07-22T16:27:08;27.65;68.91
69393;SHT31;56582;44.624;20.378;2023-07-22T16:29:33;27.66;71.01
69393;SHT31;56582;44.624;20.378;2023-07-22T16:32:00;27.52;70.25
69393;SHT31;56582;44.624;20.378;2023-07-22T16:34:25;27.41;70.05
69393;SHT31;56582;44.624;20.378;2023-07-22T16:36:51;27.39;72.01
69393;SHT31;56582;44.624;20.378;2023-07-22T16:39:16;27.41;71.63
69393;SHT31;56582;44.624;20.378;2023-07-22T16:41:42;27.22;70.16
69393;SHT31;56582;44.624;20.378;2023-07-22T16:44:07;26.84;70.83
69393;SHT31;56582;44.624;20.378;2023-07-22T16:46:33;27.05;73.17
69393;SHT31;56582;44.624;20.378;2023-07-22T16:48:59;26.98;71.56
69393;SHT31;56582;44.624;20.378;2023-07-22T16:51:25;26.76;73.26
69393;SHT31;56582;44.624;20.378;2023-07-22T16:53:52;26.42;73.50
69393;SHT31;56582;44.624;20.378;2023-07-22T16:56:17;26.08;73.92
69393;SHT31;56582;44.624;20.378;2023-07-22T16:58:43;26.01;73.70
69393;SHT31;56582;44.624;20.378;2023-07-22T17:01:08;26.26;73.47
69393;SHT31;56582;44.624;20.378;2023-07-22T17:03:37;26.28;73.60
69393;SHT31;56582;44.624;20.378;2023-07-22T17:06:03;26.52;72.67
69393;SHT31;56582;44.624;20.378;2023-07-22T17:08:29;26.57;75.48
69393;SHT31;56582;44.624;20.378;2023-07-22T17:10:54;26.61;73.51
69393;SHT31;56582;44.624;20.378;2023-07-22T17:13:20;26.56;74.11
69393;SHT31;56582;44.624;20.378;2023-07-22T17:15:45;26.32;77.85
69393;SHT31;56582;44.624;20.378;2023-07-22T17:18:11;26.19;74.93
69393;SHT31;56582;44.624;20.378;2023-07-22T17:20:36;25.99;73.01
69393;SHT31;56582;44.624;20.378;2023-07-22T17:23:02;25.95;72.82
69393;SHT31;56582;44.624;20.378;2023-07-22T17:25:27;25.81;74.02
69393;SHT31;56582;44.624;20.378;2023-07-22T17:27:52;25.94;74.16
69393;SHT31;56582;44.624;20.378;2023-07-22T17:30:18;26.02;72.64
69393;SHT31;56582;44.624;20.378;2023-07-22T17:32:44;25.78;72.59
69393;SHT31;56582;44.624;20.378;2023-07-22T17:35:17;25.84;74.16
69393;SHT31;56582;44.624;20.378;2023-07-22T17:37:43;25.56;73.92
69393;SHT31;56582;44.624;20.378;2023-07-22T17:40:09;25.58;75.76
69393;SHT31;56582;44.624;20.378;2023-07-22T17:42:34;25.50;76.29
69393;SHT31;56582;44.624;20.378;2023-07-22T17:45:00;25.50;76.47
69393;SHT31;56582;44.624;20.378;2023-07-22T17:47:26;25.41;75.75
69393;SHT31;56582;44.624;20.378;2023-07-22T17:49:51;25.34;76.52
69393;SHT31;56582;44.624;20.378;2023-07-22T17:52:18;25.10;75.22
69393;SHT31;56582;44.624;20.378;2023-07-22T17:54:43;24.99;74.42
69393;SHT31;56582;44.624;20.378;2023-07-22T17:57:10;25.07;75.97
69393;SHT31;56582;44.624;20.378;2023-07-22T17:59:35;25.09;75.75
69393;SHT31;56582;44.624;20.378;2023-07-22T18:02:01;24.96;76.50
69393;SHT31;56582;44.624;20.378;2023-07-22T18:04:28;25.00;76.24
69393;SHT31;56582;44.624;20.378;2023-07-22T18:06:54;24.64;77.58
69393;SHT31;56582;44.624;20.378;2023-07-22T18:09:19;24.48;77.84
69393;SHT31;56582;44.624;20.378;2023-07-22T18:11:45;24.44;78.79
69393;SHT31;56582;44.624;20.378;2023-07-22T18:14:11;24.35;77.82
69393;SHT31;56582;44.624;20.378;2023-07-22T18:16:37;24.31;77.18
69393;SHT31;56582;44.624;20.378;2023-07-22T18:19:02;24.40;75.88
69393;SHT31;56582;44.624;20.378;2023-07-22T18:21:28;24.48;79.67
69393;SHT31;56582;44.624;20.378;2023-07-22T18:23:53;24.44;78.31
69393;SHT31;56582;44.624;20.378;2023-07-22T18:26:18;24.25;79.17
69393;SHT31;56582;44.624;20.378;2023-07-22T18:28:44;23.92;80.32
69393;SHT31;56582;44.624;20.378;2023-07-22T18:31:09;23.93;80.52
69393;SHT31;56582;44.624;20.378;2023-07-22T18:33:35;24.01;79.69
69393;SHT31;56582;44.624;20.378;2023-07-22T18:36:00;23.93;81.80
69393;SHT31;56582;44.624;20.378;2023-07-22T18:38:26;24.00;81.40
69393;SHT31;56582;44.624;20.378;2023-07-22T18:40:52;23.87;82.64
69393;SHT31;56582;44.624;20.378;2023-07-22T18:43:18;24.03;83.18
69393;SHT31;56582;44.624;20.378;2023-07-22T18:45:43;24.17;82.15
69393;SHT31;56582;44.624;20.378;2023-07-22T18:48:09;23.94;81.25
69393;SHT31;56582;44.624;20.378;2023-07-22T18:50:34;23.84;80.95
69393;SHT31;56582;44.624;20.378;2023-07-22T18:53:02;23.52;81.72
69393;SHT31;56582;44.624;20.378;2023-07-22T18:55:27;23.55;83.05
69393;SHT31;56582;44.624;20.378;2023-07-22T18:57:53;23.62;80.38
69393;SHT31;56582;44.624;20.378;2023-07-22T19:00:18;23.63;80.67
69393;SHT31;56582;44.624;20.378;2023-07-22T19:02:44;23.51;81.67
69393;SHT31;56582;44.624;20.378;2023-07-22T19:05:10;23.38;82.41
69393;SHT31;56582;44.624;20.378;2023-07-22T19:07:35;23.42;82.58
69393;SHT31;56582;44.624;20.378;2023-07-22T19:10:01;23.46;82.33
69393;SHT31;56582;44.624;20.378;2023-07-22T19:12:26;23.41;82.43
69393;SHT31;56582;44.624;20.378;2023-07-22T19:14:52;23.38;82.01
69393;SHT31;56582;44.624;20.378;2023-07-22T19:17:19;23.39;82.68
69393;SHT31;56582;44.624;20.378;2023-07-22T19:19:44;23.49;82.03
69393;SHT31;56582;44.624;20.378;2023-07-22T19:22:10;23.41;82.07
69393;SHT31;56582;44.624;20.378;2023-07-22T19:24:35;23.38;82.88
69393;SHT31;56582;44.624;20.378;2023-07-22T19:27:01;23.38;82.78
69393;SHT31;56582;44.624;20.378;2023-07-22T19:29:27;23.45;82.83
69393;SHT31;56582;44.624;20.378;2023-07-22T19:31:52;23.41;83.16
69393;SHT31;56582;44.624;20.378;2023-07-22T19:34:18;23.32;82.53
69393;SHT31;56582;44.624;20.378;2023-07-22T19:36:44;23.31;82.06
69393;SHT31;56582;44.624;20.378;2023-07-22T19:39:09;23.39;83.29
69393;SHT31;56582;44.624;20.378;2023-07-22T19:41:35;23.38;82.39
69393;SHT31;56582;44.624;20.378;2023-07-22T19:44:01;23.35;82.39
69393;SHT31;56582;44.624;20.378;2023-07-22T19:46:27;23.42;82.15
69393;SHT31;56582;44.624;20.378;2023-07-22T19:48:52;23.31;82.36
69393;SHT31;56582;44.624;20.378;2023-07-22T19:51:18;23.41;82.37
69393;SHT31;56582;44.624;20.378;2023-07-22T19:53:44;23.51;80.99
69393;SHT31;56582;44.624;20.378;2023-07-22T19:56:10;23.42;81.49
69393;SHT31;56582;44.624;20.378;2023-07-22T19:58:36;23.38;81.21
69393;SHT31;56582;44.624;20.378;2023-07-22T20:01:02;23.39;82.20
69393;SHT31;56582;44.624;20.378;2023-07-22T20:03:29;23.38;82.31
69393;SHT31;56582;44.624;20.378;2023-07-22T20:05:54;23.37;82.35
69393;SHT31;56582;44.624;20.378;2023-07-22T20:08:20;23.33;84.86
69393;SHT31;56582;44.624;20.378;2023-07-22T20:10:50;23.25;84.28
69393;SHT31;56582;44.624;20.378;2023-07-22T20:13:16;22.98;85.22
69393;SHT31;56582;44.624;20.378;2023-07-22T20:15:41;22.98;84.92
69393;SHT31;56582;44.624;20.378;2023-07-22T20:18:07;23.26;85.25
69393;SHT31;56582;44.624;20.378;2023-07-22T20:20:32;23.05;87.97
69393;SHT31;56582;44.624;20.378;2023-07-22T20:22:58;22.60;86.09
69393;SHT31;56582;44.624;20.378;2023-07-22T20:25:24;22.63;86.74
69393;SHT31;56582;44.624;20.378;2023-07-22T20:27:54;22.74;87.81
69393;SHT31;56582;44.624;20.378;2023-07-22T20:30:20;22.50;89.43
69393;SHT31;56582;44.624;20.378;2023-07-22T20:32:46;22.25;90.39
69393;SHT31;56582;44.624;20.378;2023-07-22T20:35:13;22.15;90.26
69393;SHT31;56582;44.624;20.378;2023-07-22T20:37:42;21.75;91.49
69393;SHT31;56582;44.624;20.378;2023-07-22T20:40:08;21.77;92.77
69393;SHT31;56582;44.624;20.378;2023-07-22T20:42:34;21.64;94.06
69393;SHT31;56582;44.624;20.378;2023-07-22T20:45:00;21.31;95.83
69393;SHT31;56582;44.624;20.378;2023-07-22T20:47:26;20.93;96.08
69393;SHT31;56582;44.624;20.378;2023-07-22T20:49:52;20.30;96.97
69393;SHT31;56582;44.624;20.378;2023-07-22T20:52:18;20.31;97.06
69393;SHT31;56582;44.624;20.378;2023-07-22T20:54:50;20.01;98.07
69393;SHT31;56582;44.624;20.378;2023-07-22T20:57:17;19.86;98.13
69393;SHT31;56582;44.624;20.378;2023-07-22T20:59:43;19.84;96.88
69393;SHT31;56582;44.624;20.378;2023-07-22T21:02:08;19.67;97.02
69393;SHT31;56582;44.624;20.378;2023-07-22T21:04:34;19.93;97.25
69393;SHT31;56582;44.624;20.378;2023-07-22T21:07:04;19.77;96.42
69393;SHT31;56582;44.624;20.378;2023-07-22T21:09:31;19.93;95.73
69393;SHT31;56582;44.624;20.378;2023-07-22T23:30:11;21.53;90.74
69393;SHT31;56582;44.624;20.378;2023-07-22T23:32:36;21.24;91.79
69393;SHT31;56582;44.624;20.378;2023-07-22T23:35:02;21.13;92.10
69393;SHT31;56582;44.624;20.378;2023-07-22T23:37:28;21.10;91.86
69393;SHT31;56582;44.624;20.378;2023-07-22T23:39:54;21.23;91.19
69393;SHT31;56582;44.624;20.378;2023-07-22T23:42:20;21.23;91.75
69393;SHT31;56582;44.624;20.378;2023-07-22T23:44:45;21.18;92.07
69393;SHT31;56582;44.624;20.378;2023-07-22T23:47:11;21.24;91.54
69393;SHT31;56582;44.624;20.378;2023-07-22T23:49:36;21.24;91.46
69393;SHT31;56582;44.624;20.378;2023-07-22T23:52:02;21.16;92.26
69393;SHT31;56582;44.624;20.378;2023-07-22T23:54:27;21.14;91.98